Time;durP1;ratioP1;P1;durP2;ratioP2;P2;SDS_P1;SDS_P2;PMS_P1;PMS_P2;Temp;Humidity;BMP_temperature;BMP_pressure;BME280_temperature;BME280_humidity;BME280_pressure;Samples;Min_cycle;Max_cycle;Signal;HPM_P1;HPM_P2
2022/11/09 00:00:39;;;;;;;26.63;16.83;;;;;;;;;;6624733;28;20297;-96
2022/11/09 00:03:55;;;;;;;25.30;16.20;;;;;;;;;;6626205;28;20176;-96
2022/11/09 00:07:05;;;;;;;23.63;15.83;;;;;;;;;;6625369;28;20183;-96
2022/11/09 00:10:15;;;;;;;25.63;16.10;;;;;;;;;;6624583;28;20204;-96
2022/11/09 00:13:26;;;;;;;24.73;15.50;;;;;;;;;;6623983;28;20168;-95
2022/11/09 00:16:36;;;;;;;22.33;14.43;;;;;;;;;;6624389;28;20305;-96
2022/11/09 00:19:46;;;;;;;21.90;15.10;;;;;;;;;;6622864;28;20211;-96
2022/11/09 00:22:58;;;;;;;23.73;15.37;;;;;;;;;;6624085;28;20179;-96
2022/11/09 00:26:12;;;;;;;23.50;14.67;;;;;;;;;;6625599;28;20183;-96
2022/11/09 00:29:23;;;;;;;21.30;14.97;;;;;;;;;;6625668;28;20180;-96
2022/11/09 00:32:34;;;;;;;21.33;14.23;;;;;;;;;;6624565;28;20171;-96
2022/11/09 00:35:44;;;;;;;23.03;14.73;;;;;;;;;;6623793;28;20323;-96
2022/11/09 00:38:56;;;;;;;21.87;14.53;;;;;;;;;;6623775;28;20187;-96
2022/11/09 00:42:08;;;;;;;21.50;14.10;;;;;;;;;;6624354;28;20180;-96
2022/11/09 00:45:19;;;;;;;21.83;14.43;;;;;;;;;;6623927;28;20184;-96
2022/11/09 00:48:29;;;;;;;24.13;15.30;;;;;;;;;;6623807;28;20558;-96
2022/11/09 00:51:39;;;;;;;26.97;17.07;;;;;;;;;;6623488;28;20179;-96
2022/11/09 00:54:51;;;;;;;21.47;15.30;;;;;;;;;;6623335;28;20203;-96
2022/11/09 00:58:03;;;;;;;22.33;14.30;;;;;;;;;;6622901;28;20207;-96
2022/11/09 01:01:15;;;;;;;24.10;15.73;;;;;;;;;;6623577;28;20527;-96
2022/11/09 01:04:26;;;;;;;23.13;15.43;;;;;;;;;;6623421;28;20261;-96
2022/11/09 01:07:38;;;;;;;26.67;16.77;;;;;;;;;;6623241;28;20623;-96
2022/11/09 01:10:49;;;;;;;24.53;15.67;;;;;;;;;;6624714;28;20547;-96
2022/11/09 01:14:01;;;;;;;25.03;15.73;;;;;;;;;;6623930;28;20230;-96
2022/11/09 01:17:11;;;;;;;28.50;16.83;;;;;;;;;;6623164;28;20183;-96
2022/11/09 01:20:23;;;;;;;26.53;16.27;;;;;;;;;;6624515;28;20627;-96
2022/11/09 01:23:35;;;;;;;27.07;16.33;;;;;;;;;;6624056;28;20520;-96
2022/11/09 01:26:47;;;;;;;25.10;16.43;;;;;;;;;;6623271;28;20621;-96
2022/11/09 01:29:57;;;;;;;25.50;16.47;;;;;;;;;;6623704;28;20202;-96
2022/11/09 01:33:09;;;;;;;26.87;16.23;;;;;;;;;;6622548;28;20180;-96
2022/11/09 01:36:21;;;;;;;26.43;16.67;;;;;;;;;;6622355;28;20239;-96
2022/11/09 01:39:32;;;;;;;27.80;16.70;;;;;;;;;;6623427;28;20180;-96
2022/11/09 01:42:44;;;;;;;29.60;18.07;;;;;;;;;;6623942;28;20259;-96
2022/11/09 01:45:57;;;;;;;26.03;17.27;;;;;;;;;;6622493;28;20180;-96
2022/11/09 01:49:13;;;;;;;28.27;17.93;;;;;;;;;;6623684;28;20238;-96
2022/11/09 01:52:40;;;;;;;27.37;17.10;;;;;;;;;;6623031;28;20183;-96
2022/11/09 01:55:51;;;;;;;24.40;15.77;;;;;;;;;;6622381;28;20258;-96
2022/11/09 01:59:04;;;;;;;28.17;15.90;;;;;;;;;;6621854;28;20317;-96
2022/11/09 02:02:15;;;;;;;24.67;16.27;;;;;;;;;;6621730;28;20343;-96
2022/11/09 02:05:28;;;;;;;21.57;14.97;;;;;;;;;;6621966;28;20636;-96
2022/11/09 02:08:40;;;;;;;23.40;15.37;;;;;;;;;;6623012;28;20617;-96
2022/11/09 02:11:51;;;;;;;24.63;15.37;;;;;;;;;;6621782;28;20184;-96
2022/11/09 02:15:03;;;;;;;26.43;16.57;;;;;;;;;;6621332;28;20277;-96
2022/11/09 02:18:15;;;;;;;24.30;16.20;;;;;;;;;;6621381;28;20176;-96
2022/11/09 02:21:28;;;;;;;21.30;15.17;;;;;;;;;;6621376;28;20183;-96
2022/11/09 02:24:40;;;;;;;27.10;15.63;;;;;;;;;;6621557;28;20230;-96
2022/11/09 02:27:51;;;;;;;26.10;16.03;;;;;;;;;;6622809;28;20239;-96
2022/11/09 02:31:04;;;;;;;25.67;15.77;;;;;;;;;;6622826;28;20212;-96
2022/11/09 02:34:16;;;;;;;28.97;16.90;;;;;;;;;;6620988;28;20204;-96
2022/11/09 02:37:45;;;;;;;24.40;15.07;;;;;;;;;;6621650;28;20182;-96
2022/11/09 02:40:55;;;;;;;24.13;15.63;;;;;;;;;;6621357;28;20179;-96
2022/11/09 02:44:05;;;;;;;28.60;15.90;;;;;;;;;;6620705;28;20237;-96
2022/11/09 02:47:15;;;;;;;24.03;15.53;;;;;;;;;;6620935;28;20179;-96
2022/11/09 02:50:27;;;;;;;29.53;17.20;;;;;;;;;;6620737;28;20176;-96
2022/11/09 02:53:38;;;;;;;25.60;16.50;;;;;;;;;;6622578;28;20225;-96
2022/11/09 02:56:49;;;;;;;25.17;15.67;;;;;;;;;;6620605;28;20742;-96
2022/11/09 02:59:59;;;;;;;25.00;15.37;;;;;;;;;;6620586;28;20191;-96
2022/11/09 03:03:10;;;;;;;21.80;14.57;;;;;;;;;;6621055;28;20182;-96
2022/11/09 03:06:32;;;;;;;23.83;14.63;;;;;;;;;;6620721;28;20251;-96
2022/11/09 03:09:44;;;;;;;26.83;16.33;;;;;;;;;;6606390;28;20176;-96
2022/11/09 03:12:56;;;;;;;27.13;16.37;;;;;;;;;;6621325;28;20236;-96
2022/11/09 03:16:07;;;;;;;25.13;15.13;;;;;;;;;;6620071;28;20242;-96
2022/11/09 03:19:17;;;;;;;22.23;14.67;;;;;;;;;;6621443;28;20241;-95
2022/11/09 03:22:28;;;;;;;26.03;15.07;;;;;;;;;;6619961;28;20186;-96
2022/11/09 03:25:38;;;;;;;23.37;14.77;;;;;;;;;;6620708;28;20655;-96
2022/11/09 03:28:48;;;;;;;24.80;15.43;;;;;;;;;;6619898;28;20183;-96
2022/11/09 03:32:00;;;;;;;25.73;16.17;;;;;;;;;;6620707;28;20552;-96
2022/11/09 03:35:10;;;;;;;25.10;15.37;;;;;;;;;;6620485;28;20200;-96
2022/11/09 03:38:22;;;;;;;23.03;14.77;;;;;;;;;;6621678;28;20180;-96
2022/11/09 03:41:33;;;;;;;22.77;15.20;;;;;;;;;;6620257;28;20180;-96
2022/11/09 03:44:44;;;;;;;23.97;14.93;;;;;;;;;;6621799;28;20180;-96
2022/11/09 03:47:59;;;;;;;23.73;14.93;;;;;;;;;;6620577;28;20215;-96
2022/11/09 03:51:09;;;;;;;24.27;15.23;;;;;;;;;;6620889;28;20176;-96
2022/11/09 03:54:19;;;;;;;26.13;14.80;;;;;;;;;;6622608;28;20210;-96
2022/11/09 03:57:30;;;;;;;22.87;14.77;;;;;;;;;;6624880;28;20660;-96
2022/11/09 04:00:41;;;;;;;23.90;15.37;;;;;;;;;;6624675;28;20184;-96
2022/11/09 04:03:52;;;;;;;24.63;14.63;;;;;;;;;;6626340;28;20233;-96
2022/11/09 04:07:02;;;;;;;24.53;15.33;;;;;;;;;;6624626;28;20200;-96
2022/11/09 04:10:14;;;;;;;27.23;15.53;;;;;;;;;;6624457;28;20190;-96
2022/11/09 04:13:24;;;;;;;34.40;20.70;;;;;;;;;;6624776;28;20204;-96
2022/11/09 04:16:34;;;;;;;36.50;21.67;;;;;;;;;;6624561;28;20592;-96
2022/11/09 04:19:45;;;;;;;39.73;23.07;;;;;;;;;;6607915;28;20186;-96
2022/11/09 04:22:55;;;;;;;44.67;24.10;;;;;;;;;;6624187;28;20175;-96
2022/11/09 04:26:05;;;;;;;48.13;25.53;;;;;;;;;;6623974;28;20187;-96
2022/11/09 04:29:16;;;;;;;51.43;28.90;;;;;;;;;;6624033;28;20579;-96
2022/11/09 04:32:26;;;;;;;63.80;33.37;;;;;;;;;;6625304;28;20195;-96
2022/11/09 04:35:37;;;;;;;62.77;35.47;;;;;;;;;;6623872;28;20208;-96
2022/11/09 04:38:48;;;;;;;60.10;32.07;;;;;;;;;;6624252;28;20180;-96
2022/11/09 04:41:58;;;;;;;36.67;22.33;;;;;;;;;;6623680;28;20176;-96
2022/11/09 04:45:09;;;;;;;33.97;20.17;;;;;;;;;;6623896;28;20175;-95
2022/11/09 04:48:19;;;;;;;26.63;16.83;;;;;;;;;;6598560;28;20595;-96
2022/11/09 04:51:29;;;;;;;29.93;18.30;;;;;;;;;;6597590;28;20647;-95
2022/11/09 04:54:40;;;;;;;27.20;17.03;;;;;;;;;;6597174;28;20602;-95
2022/11/09 04:57:50;;;;;;;31.73;18.43;;;;;;;;;;6598100;28;20204;-95
2022/11/09 05:01:03;;;;;;;28.60;18.43;;;;;;;;;;6598816;28;20172;-96
2022/11/09 05:04:14;;;;;;;28.73;17.93;;;;;;;;;;6598505;28;20226;-96
2022/11/09 05:07:24;;;;;;;29.57;17.07;;;;;;;;;;6581886;28;20193;-96
2022/11/09 05:10:35;;;;;;;29.67;16.53;;;;;;;;;;6596883;28;20177;-96
2022/11/09 05:13:45;;;;;;;26.27;16.77;;;;;;;;;;6597229;28;20644;-96
2022/11/09 05:16:57;;;;;;;26.30;16.63;;;;;;;;;;6596952;28;20231;-96
2022/11/09 05:20:07;;;;;;;29.00;17.60;;;;;;;;;;6597202;28;20629;-95
2022/11/09 05:26:49;;;;;;;27.23;16.27;;;;;;;;;;6597708;28;20163;-96
2022/11/09 05:29:59;;;;;;;34.53;19.93;;;;;;;;;;6596868;28;20568;-96
2022/11/09 05:33:09;;;;;;;42.50;24.90;;;;;;;;;;6596661;28;20177;-96
2022/11/09 05:36:20;;;;;;;48.40;27.73;;;;;;;;;;6596092;28;20208;-96
2022/11/09 05:39:30;;;;;;;43.63;27.00;;;;;;;;;;6596336;28;20173;-96
2022/11/09 05:42:42;;;;;;;34.67;21.27;;;;;;;;;;6596103;28;20639;-96
2022/11/09 05:45:53;;;;;;;27.03;17.53;;;;;;;;;;6596285;28;20176;-96
2022/11/09 05:49:03;;;;;;;25.00;16.13;;;;;;;;;;6596609;28;20184;-96
2022/11/09 05:52:16;;;;;;;27.63;17.20;;;;;;;;;;6598528;28;20560;-96
2022/11/09 05:55:26;;;;;;;29.13;17.00;;;;;;;;;;6595895;28;20208;-96
2022/11/09 05:58:38;;;;;;;28.10;15.17;;;;;;;;;;6596182;28;20264;-96
2022/11/09 06:01:49;;;;;;;26.77;16.47;;;;;;;;;;6595985;28;20180;-96
2022/11/09 06:05:01;;;;;;;32.93;17.83;;;;;;;;;;6596055;28;20176;-96
2022/11/09 06:08:14;;;;;;;29.43;17.57;;;;;;;;;;6595771;28;20525;-96
2022/11/09 06:11:24;;;;;;;33.87;19.57;;;;;;;;;;6596203;28;20176;-96
2022/11/09 06:14:34;;;;;;;33.07;18.90;;;;;;;;;;6579105;28;20251;-96
2022/11/09 06:17:49;;;;;;;31.60;18.63;;;;;;;;;;6594914;28;20176;-96
2022/11/09 06:21:03;;;;;;;32.40;20.53;;;;;;;;;;6595507;28;20215;-96
2022/11/09 06:24:13;;;;;;;36.03;22.33;;;;;;;;;;6595618;28;20191;-96
2022/11/09 06:27:25;;;;;;;40.37;23.70;;;;;;;;;;6594782;28;20271;-96
2022/11/09 06:30:35;;;;;;;38.23;22.57;;;;;;;;;;6595472;28;20204;-96
2022/11/09 06:33:47;;;;;;;29.93;19.50;;;;;;;;;;6578981;28;20637;-96
2022/11/09 06:36:59;;;;;;;28.00;17.10;;;;;;;;;;6595187;28;20216;-96
2022/11/09 06:40:11;;;;;;;30.40;20.47;;;;;;;;;;6594515;28;20203;-96
2022/11/09 06:43:22;;;;;;;26.23;18.20;;;;;;;;;;6594234;28;20648;-96
2022/11/09 06:46:33;;;;;;;26.63;17.57;;;;;;;;;;6569862;28;20244;-96
2022/11/09 06:49:43;;;;;;;24.37;16.97;;;;;;;;;;6570173;28;20267;-96
2022/11/09 06:52:57;;;;;;;25.40;18.40;;;;;;;;;;6569131;28;20176;-96
2022/11/09 06:56:09;;;;;;;24.47;17.53;;;;;;;;;;6585311;28;20314;-96
2022/11/09 06:59:19;;;;;;;27.50;18.57;;;;;;;;;;6585530;28;20228;-96
2022/11/09 07:02:29;;;;;;;25.20;18.07;;;;;;;;;;6585888;28;20181;-96
2022/11/09 07:05:42;;;;;;;26.23;17.97;;;;;;;;;;6585187;28;20235;-96
2022/11/09 07:08:55;;;;;;;26.23;18.50;;;;;;;;;;6570594;28;20279;-96
2022/11/09 07:12:06;;;;;;;23.17;18.03;;;;;;;;;;6584910;28;20180;-96
2022/11/09 07:15:17;;;;;;;25.70;18.13;;;;;;;;;;6584298;28;20647;-96
2022/11/09 07:18:27;;;;;;;25.20;17.37;;;;;;;;;;6585675;28;20185;-96
2022/11/09 07:21:37;;;;;;;19.40;15.93;;;;;;;;;;6584978;28;20177;-96
2022/11/09 07:24:49;;;;;;;24.30;17.10;;;;;;;;;;6568730;28;20196;-95
2022/11/09 07:28:04;;;;;;;20.30;15.33;;;;;;;;;;6573091;28;20177;-95
2022/11/09 07:31:14;;;;;;;19.80;14.93;;;;;;;;;;6575030;28;20166;-94
2022/11/09 07:34:24;;;;;;;22.60;15.67;;;;;;;;;;6601651;28;20196;-95
2022/11/09 07:37:35;;;;;;;21.23;15.43;;;;;;;;;;6599820;28;20191;-95
2022/11/09 07:40:45;;;;;;;19.80;15.00;;;;;;;;;;6600380;28;20497;-95
2022/11/09 07:43:56;;;;;;;18.90;14.67;;;;;;;;;;6600084;28;20675;-95
2022/11/09 07:47:07;;;;;;;19.80;14.53;;;;;;;;;;6600161;28;20172;-95
2022/11/09 07:50:17;;;;;;;21.07;14.53;;;;;;;;;;6600542;28;20169;-95
2022/11/09 07:53:28;;;;;;;21.03;14.93;;;;;;;;;;6599770;28;20176;-95
2022/11/09 07:56:38;;;;;;;21.53;14.90;;;;;;;;;;6600223;28;20238;-96
2022/11/09 07:59:50;;;;;;;21.10;14.40;;;;;;;;;;6599052;28;20207;-93
2022/11/09 08:03:02;;;;;;;19.23;13.97;;;;;;;;;;6603900;28;20175;-94
2022/11/09 08:06:12;;;;;;;20.30;15.13;;;;;;;;;;6597903;28;20168;-93
2022/11/09 08:09:23;;;;;;;18.13;14.40;;;;;;;;;;6598545;28;20168;-92
2022/11/09 08:12:33;;;;;;;20.97;15.07;;;;;;;;;;6599655;28;20169;-92
2022/11/09 08:15:44;;;;;;;18.50;14.33;;;;;;;;;;6601134;28;20251;-92
2022/11/09 08:18:54;;;;;;;17.90;14.13;;;;;;;;;;6600164;28;20168;-91
2022/11/09 08:22:04;;;;;;;19.63;15.03;;;;;;;;;;6600547;28;20259;-91
2022/11/09 08:25:16;;;;;;;17.87;14.70;;;;;;;;;;6601175;28;20609;-91
2022/11/09 08:28:26;;;;;;;19.50;15.70;;;;;;;;;;6600231;28;20242;-92
2022/11/09 08:31:36;;;;;;;18.53;14.33;;;;;;;;;;6599144;28;20314;-92
2022/11/09 08:34:47;;;;;;;17.03;13.80;;;;;;;;;;6599445;28;20207;-92
2022/11/09 08:37:59;;;;;;;18.63;13.83;;;;;;;;;;6598700;28;20204;-93
2022/11/09 08:41:11;;;;;;;16.77;13.23;;;;;;;;;;6598218;28;20636;-93
2022/11/09 08:44:22;;;;;;;17.67;13.67;;;;;;;;;;6597283;28;20176;-91
2022/11/09 08:47:33;;;;;;;19.00;13.43;;;;;;;;;;6598706;28;20176;-91
2022/11/09 08:50:43;;;;;;;17.13;13.57;;;;;;;;;;6598857;28;20610;-91
2022/11/09 08:53:54;;;;;;;19.20;13.30;;;;;;;;;;6598608;28;20169;-93
2022/11/09 08:57:04;;;;;;;17.43;13.50;;;;;;;;;;6598337;28;20247;-91
2022/11/09 09:00:14;;;;;;;16.40;13.03;;;;;;;;;;6598799;28;20169;-91
2022/11/09 09:03:25;;;;;;;16.87;14.00;;;;;;;;;;6598302;28;20176;-90
2022/11/09 09:06:35;;;;;;;16.67;13.10;;;;;;;;;;6598675;28;20570;-90
2022/11/09 09:09:45;;;;;;;18.73;14.27;;;;;;;;;;6598299;28;20191;-90
2022/11/09 09:12:56;;;;;;;14.57;12.23;;;;;;;;;;6598078;28;20633;-90
2022/11/09 09:16:13;;;;;;;13.87;11.07;;;;;;;;;;6597984;28;20232;-90
2022/11/09 09:19:23;;;;;;;17.83;13.87;;;;;;;;;;6598298;28;20172;-91
2022/11/09 09:22:34;;;;;;;15.10;12.47;;;;;;;;;;6598289;28;20687;-90
2022/11/09 09:25:44;;;;;;;15.80;12.03;;;;;;;;;;6597687;28;20519;-92
2022/11/09 09:28:55;;;;;;;16.27;12.57;;;;;;;;;;6598065;28;20172;-90
2022/11/09 09:32:05;;;;;;;17.00;12.40;;;;;;;;;;6598024;28;20176;-90
2022/11/09 09:35:16;;;;;;;15.07;12.00;;;;;;;;;;6597808;28;20203;-90
2022/11/09 09:38:27;;;;;;;16.93;13.10;;;;;;;;;;6596644;28;20178;-90
2022/11/09 09:41:58;;;;;;;14.97;11.97;;;;;;;;;;6597312;28;20172;-90
2022/11/09 09:45:13;;;;;;;16.20;12.70;;;;;;;;;;6597447;28;20632;-90
2022/11/09 09:48:35;;;;;;;16.23;12.97;;;;;;;;;;6597277;28;20192;-90
2022/11/09 09:51:48;;;;;;;16.10;13.03;;;;;;;;;;6596762;28;20232;-90
2022/11/09 09:55:02;;;;;;;18.27;13.50;;;;;;;;;;6597725;28;20286;-90
2022/11/09 09:58:16;;;;;;;18.83;13.27;;;;;;;;;;6596961;28;20196;-90
2022/11/09 10:01:33;;;;;;;17.43;13.03;;;;;;;;;;6597241;28;20168;-90
2022/11/09 10:04:44;;;;;;;16.80;12.87;;;;;;;;;;6597632;28;20191;-90
2022/11/09 10:08:13;;;;;;;16.23;12.43;;;;;;;;;;6596813;28;20172;-90
2022/11/09 10:11:36;;;;;;;16.10;12.53;;;;;;;;;;6596579;28;20200;-90
2022/11/09 10:15:05;;;;;;;16.40;12.47;;;;;;;;;;6597148;28;20255;-90
2022/11/09 10:18:24;;;;;;;16.23;11.80;;;;;;;;;;6598027;28;20182;-90
2022/11/09 10:21:37;;;;;;;15.40;12.30;;;;;;;;;;6597198;28;20168;-90
2022/11/09 10:25:07;;;;;;;15.67;12.10;;;;;;;;;;6596776;28;20195;-89
2022/11/09 10:28:21;;;;;;;14.33;11.40;;;;;;;;;;6596710;28;20169;-89
2022/11/09 10:31:32;;;;;;;20.17;12.70;;;;;;;;;;6597097;28;20173;-90
2022/11/09 10:34:43;;;;;;;14.40;11.80;;;;;;;;;;6596929;28;20552;-90
2022/11/09 10:37:53;;;;;;;16.20;12.03;;;;;;;;;;6596336;28;20172;-90
2022/11/09 10:41:27;;;;;;;12.73;10.73;;;;;;;;;;6596168;28;20255;-89
2022/11/09 10:44:37;;;;;;;13.03;10.53;;;;;;;;;;6583248;28;20184;-90
2022/11/09 10:47:49;;;;;;;13.93;10.63;;;;;;;;;;6595108;28;20651;-89
2022/11/09 10:50:59;;;;;;;13.10;10.70;;;;;;;;;;6595871;28;20168;-90
2022/11/09 10:54:31;;;;;;;13.13;10.37;;;;;;;;;;6596738;28;20700;-90
2022/11/09 10:57:54;;;;;;;12.20;10.13;;;;;;;;;;6595902;28;20196;-89
2022/11/09 11:01:18;;;;;;;15.17;10.20;;;;;;;;;;6597396;28;20168;-90
2022/11/09 11:04:29;;;;;;;12.00;9.53;;;;;;;;;;6602328;28;20584;-90
2022/11/09 11:07:39;;;;;;;12.87;10.57;;;;;;;;;;6601946;28;20168;-90
2022/11/09 11:10:50;;;;;;;11.57;9.70;;;;;;;;;;6601142;28;20179;-90
2022/11/09 11:14:21;;;;;;;13.67;10.60;;;;;;;;;;6601423;28;20502;-90
2022/11/09 11:17:35;;;;;;;12.80;10.03;;;;;;;;;;6601364;28;20160;-90
2022/11/09 11:20:46;;;;;;;13.10;10.57;;;;;;;;;;6602316;28;20187;-90
2022/11/09 11:24:16;;;;;;;12.37;10.67;;;;;;;;;;6601529;28;20494;-90
2022/11/09 11:27:28;;;;;;;14.77;11.43;;;;;;;;;;6601076;28;20176;-90
2022/11/09 11:30:39;;;;;;;13.50;10.73;;;;;;;;;;6600964;28;20255;-90
2022/11/09 11:33:49;;;;;;;13.10;11.53;;;;;;;;;;6600761;28;20612;-90
2022/11/09 11:37:18;;;;;;;13.03;11.00;;;;;;;;;;6600738;28;20195;-89
2022/11/09 11:40:31;;;;;;;14.40;10.57;;;;;;;;;;6600153;28;20172;-90
2022/11/09 11:43:41;;;;;;;11.30;9.10;;;;;;;;;;6600559;28;20169;-90
2022/11/09 11:46:54;;;;;;;12.50;10.77;;;;;;;;;;6600450;28;20196;-90
2022/11/09 11:50:07;;;;;;;11.77;10.27;;;;;;;;;;6600505;28;20630;-90
2022/11/09 11:53:18;;;;;;;11.77;10.13;;;;;;;;;;6599227;28;20203;-90
2022/11/09 11:56:42;;;;;;;12.37;10.40;;;;;;;;;;6600146;28;20295;-90
2022/11/09 12:00:10;;;;;;;11.90;10.30;;;;;;;;;;6601857;28;20176;-90
2022/11/09 12:03:21;;;;;;;13.40;10.27;;;;;;;;;;6600410;28;20366;-90
2022/11/09 12:06:34;;;;;;;11.90;10.00;;;;;;;;;;6599806;28;20169;-90
2022/11/09 12:09:53;;;;;;;12.63;9.77;;;;;;;;;;6599946;28;20172;-90
2022/11/09 12:13:21;;;;;;;12.27;10.27;;;;;;;;;;6599239;28;20157;-90
2022/11/09 12:16:31;;;;;;;10.67;9.37;;;;;;;;;;6599365;28;20238;-90
2022/11/09 12:19:51;;;;;;;13.23;10.30;;;;;;;;;;6599319;28;20211;-90
2022/11/09 12:23:14;;;;;;;11.93;9.47;;;;;;;;;;6599901;28;20168;-90
2022/11/09 12:26:33;;;;;;;11.87;10.03;;;;;;;;;;6599697;28;20161;-90
2022/11/09 12:29:57;;;;;;;11.00;9.30;;;;;;;;;;6599494;28;20214;-90
2022/11/09 12:33:11;;;;;;;13.10;10.17;;;;;;;;;;6599755;28;20196;-90
2022/11/09 12:36:24;;;;;;;11.63;9.90;;;;;;;;;;6599252;28;20211;-90
2022/11/09 12:39:39;;;;;;;13.57;10.43;;;;;;;;;;6599269;28;20175;-90
2022/11/09 12:42:50;;;;;;;10.70;9.23;;;;;;;;;;6598877;28;20168;-91
2022/11/09 12:46:02;;;;;;;12.13;10.77;;;;;;;;;;6598983;28;20231;-91
2022/11/09 12:49:33;;;;;;;10.57;8.90;;;;;;;;;;6598718;28;20175;-90
2022/11/09 12:52:44;;;;;;;12.67;11.00;;;;;;;;;;6598282;28;20187;-90
2022/11/09 12:55:58;;;;;;;12.00;10.23;;;;;;;;;;6597462;28;20661;-91
2022/11/09 12:59:18;;;;;;;12.30;10.23;;;;;;;;;;6598377;28;20622;-91
2022/11/09 13:02:53;;;;;;;13.27;10.30;;;;;;;;;;6599911;28;20606;-91
2022/11/09 13:06:22;;;;;;;12.17;9.73;;;;;;;;;;6585308;28;20196;-91
2022/11/09 13:09:32;;;;;;;15.20;10.77;;;;;;;;;;6599047;28;20164;-91
2022/11/09 13:12:43;;;;;;;12.73;10.73;;;;;;;;;;6598547;28;20175;-91
2022/11/09 13:16:09;;;;;;;13.00;11.00;;;;;;;;;;6598108;28;20236;-91
2022/11/09 13:19:34;;;;;;;14.10;11.37;;;;;;;;;;6598300;28;20173;-90
2022/11/09 13:22:45;;;;;;;13.57;10.80;;;;;;;;;;6597855;28;20187;-91
2022/11/09 13:25:56;;;;;;;15.10;10.67;;;;;;;;;;6598313;28;20172;-91
2022/11/09 13:29:25;;;;;;;14.27;10.87;;;;;;;;;;6598148;28;20172;-91
2022/11/09 13:32:35;;;;;;;12.23;9.77;;;;;;;;;;6598805;28;20522;-91
2022/11/09 13:35:45;;;;;;;11.53;9.57;;;;;;;;;;6597554;28;20215;-91
2022/11/09 13:39:14;;;;;;;13.17;10.30;;;;;;;;;;6597884;28;20192;-91
2022/11/09 13:42:32;;;;;;;16.33;9.67;;;;;;;;;;6597609;28;20698;-91
2022/11/09 13:45:42;;;;;;;11.17;9.23;;;;;;;;;;6598693;28;20176;-91
2022/11/09 13:48:53;;;;;;;14.17;10.77;;;;;;;;;;6597365;28;20256;-91
2022/11/09 13:52:03;;;;;;;12.30;10.57;;;;;;;;;;6596351;28;20172;-91
2022/11/09 13:55:22;;;;;;;12.53;10.70;;;;;;;;;;6597386;28;20223;-91
2022/11/09 13:58:34;;;;;;;12.60;9.87;;;;;;;;;;6595964;28;20207;-91
2022/11/09 14:01:44;;;;;;;11.67;9.87;;;;;;;;;;6597694;28;20175;-91
2022/11/09 14:04:55;;;;;;;12.73;10.30;;;;;;;;;;6597441;28;20172;-91
2022/11/09 14:08:05;;;;;;;13.73;10.27;;;;;;;;;;6597433;28;20173;-91
2022/11/09 14:11:39;;;;;;;15.03;11.23;;;;;;;;;;6596770;28;20173;-95
2022/11/09 14:15:21;;;;;;;16.27;11.23;;;;;;;;;;6596594;28;20649;-94
2022/11/09 14:18:40;;;;;;;14.13;10.83;;;;;;;;;;6531269;28;20530;-94
2022/11/09 14:21:51;;;;;;;13.83;10.70;;;;;;;;;;6597185;28;20219;-94
2022/11/09 14:25:15;;;;;;;15.10;11.20;;;;;;;;;;6596500;28;20185;-94
2022/11/09 14:28:26;;;;;;;15.60;12.77;;;;;;;;;;6596630;28;20295;-94
2022/11/09 14:31:42;;;;;;;18.37;12.73;;;;;;;;;;6596098;28;20260;-94
2022/11/09 14:35:07;;;;;;;18.83;14.20;;;;;;;;;;6597183;28;20581;-94
2022/11/09 14:38:20;;;;;;;19.27;13.73;;;;;;;;;;6594712;28;20625;-94
2022/11/09 14:41:30;;;;;;;19.57;13.80;;;;;;;;;;6596968;28;20210;-94
2022/11/09 14:44:43;;;;;;;18.47;12.23;;;;;;;;;;6596091;28;20180;-92
2022/11/09 14:47:58;;;;;;;16.00;11.93;;;;;;;;;;6595881;28;20168;-92
2022/11/09 14:51:13;;;;;;;15.30;11.77;;;;;;;;;;6596349;28;20586;-92
2022/11/09 14:54:25;;;;;;;15.20;10.47;;;;;;;;;;6594938;28;20637;-92
2022/11/09 14:57:36;;;;;;;15.13;10.77;;;;;;;;;;6595795;28;20275;-92
2022/11/09 15:01:05;;;;;;;14.47;11.27;;;;;;;;;;6596276;28;20172;-93
2022/11/09 15:04:18;;;;;;;14.43;10.10;;;;;;;;;;6596939;28;20207;-93
2022/11/09 15:07:31;;;;;;;16.27;11.50;;;;;;;;;;6596235;28;20538;-92
2022/11/09 15:10:47;;;;;;;14.10;11.07;;;;;;;;;;6594675;28;20229;-93
2022/11/09 15:13:58;;;;;;;16.80;11.80;;;;;;;;;;6596129;28;20561;-92
2022/11/09 15:17:14;;;;;;;17.50;13.13;;;;;;;;;;6596210;28;20228;-93
2022/11/09 15:20:26;;;;;;;19.10;12.83;;;;;;;;;;6595854;28;20192;-92
2022/11/09 15:23:38;;;;;;;16.70;12.50;;;;;;;;;;6595486;28;20176;-93
2022/11/09 15:26:49;;;;;;;18.80;13.50;;;;;;;;;;6595943;28;20180;-92
2022/11/09 15:29:59;;;;;;;20.83;13.00;;;;;;;;;;6595611;28;20181;-93
2022/11/09 15:33:17;;;;;;;20.17;14.23;;;;;;;;;;6596517;28;20172;-94
2022/11/09 15:36:30;;;;;;;17.27;12.83;;;;;;;;;;6595039;28;20204;-94
2022/11/09 15:39:40;;;;;;;19.90;13.67;;;;;;;;;;6594461;28;20577;-94
2022/11/09 15:42:51;;;;;;;18.27;13.43;;;;;;;;;;6594737;28;20192;-95
2022/11/09 15:46:02;;;;;;;21.87;16.37;;;;;;;;;;6594539;28;20193;-94
2022/11/09 15:49:13;;;;;;;32.80;23.97;;;;;;;;;;6597232;28;20180;-94
2022/11/09 15:52:23;;;;;;;31.57;20.87;;;;;;;;;;6598729;28;20250;-95
2022/11/09 15:55:33;;;;;;;29.73;21.37;;;;;;;;;;6599581;28;20580;-93
2022/11/09 15:58:45;;;;;;;32.50;22.83;;;;;;;;;;6599960;28;20192;-94
2022/11/09 16:01:56;;;;;;;34.13;25.17;;;;;;;;;;6599188;28;20176;-94
2022/11/09 16:05:06;;;;;;;34.27;23.50;;;;;;;;;;6598923;28;20184;-94
2022/11/09 16:08:16;;;;;;;35.43;23.70;;;;;;;;;;6598902;28;20621;-94
2022/11/09 16:11:27;;;;;;;49.77;32.50;;;;;;;;;;6598026;28;20628;-94
2022/11/09 16:14:38;;;;;;;43.90;30.40;;;;;;;;;;6598333;28;20271;-94
2022/11/09 16:17:49;;;;;;;55.40;36.50;;;;;;;;;;6598871;28;20542;-94
2022/11/09 16:21:10;;;;;;;59.07;40.93;;;;;;;;;;6598512;28;20659;-94
2022/11/09 16:24:20;;;;;;;78.90;50.63;;;;;;;;;;6598850;28;20204;-94
2022/11/09 16:27:31;;;;;;;60.67;41.97;;;;;;;;;;6600454;28;20168;-94
2022/11/09 16:30:41;;;;;;;70.37;43.70;;;;;;;;;;6598339;28;20176;-94
2022/11/09 16:33:52;;;;;;;96.97;55.57;;;;;;;;;;6597982;28;20214;-94
2022/11/09 16:37:02;;;;;;;74.77;46.30;;;;;;;;;;6599057;28;20259;-95
2022/11/09 16:40:15;;;;;;;88.10;53.80;;;;;;;;;;6597332;28;20707;-94
2022/11/09 16:43:25;;;;;;;71.00;45.70;;;;;;;;;;6598672;28;20653;-95
2022/11/09 16:46:36;;;;;;;63.73;41.90;;;;;;;;;;6597932;28;20180;-95
2022/11/09 16:49:47;;;;;;;51.07;34.40;;;;;;;;;;6598913;28;20286;-94
2022/11/09 16:52:57;;;;;;;51.83;35.33;;;;;;;;;;6598534;28;20499;-95
2022/11/09 16:56:09;;;;;;;52.67;37.10;;;;;;;;;;6598457;28;20727;-95
2022/11/09 16:59:20;;;;;;;55.70;37.33;;;;;;;;;;6597527;28;20199;-94
2022/11/09 17:02:30;;;;;;;52.90;35.87;;;;;;;;;;6598152;28;20176;-94
2022/11/09 17:05:40;;;;;;;51.33;33.70;;;;;;;;;;6598732;28;20176;-95
2022/11/09 17:08:55;;;;;;;48.50;33.27;;;;;;;;;;6597319;28;20177;-94
2022/11/09 17:12:08;;;;;;;58.87;36.43;;;;;;;;;;6598498;28;20258;-95
2022/11/09 17:15:19;;;;;;;61.00;38.37;;;;;;;;;;6598524;28;20232;-95
2022/11/09 17:18:29;;;;;;;64.73;40.57;;;;;;;;;;6596616;28;20279;-95
2022/11/09 17:21:40;;;;;;;55.90;37.63;;;;;;;;;;6596510;28;20595;-95
2022/11/09 17:24:51;;;;;;;55.30;36.60;;;;;;;;;;6598669;28;20179;-95
2022/11/09 17:28:01;;;;;;;55.23;35.47;;;;;;;;;;6596429;28;20214;-94
2022/11/09 17:31:14;;;;;;;54.90;37.80;;;;;;;;;;6596495;28;20181;-92
2022/11/09 17:34:24;;;;;;;47.70;31.50;;;;;;;;;;6597009;28;20168;-95
2022/11/09 17:37:34;;;;;;;49.27;32.43;;;;;;;;;;6596935;28;20177;-94
2022/11/09 17:40:45;;;;;;;66.47;44.00;;;;;;;;;;6597304;28;20247;-94
2022/11/09 17:43:55;;;;;;;56.07;36.03;;;;;;;;;;6597979;28;20176;-94
2022/11/09 17:47:05;;;;;;;45.83;31.60;;;;;;;;;;6598123;28;20177;-94
2022/11/09 17:50:18;;;;;;;41.60;29.53;;;;;;;;;;6579847;28;20585;-93
2022/11/09 17:53:29;;;;;;;46.70;29.80;;;;;;;;;;6598112;28;20183;-94
2022/11/09 17:56:39;;;;;;;48.80;28.43;;;;;;;;;;6595772;28;20220;-94
2022/11/09 17:59:49;;;;;;;47.80;30.33;;;;;;;;;;6596428;28;20211;-94
2022/11/09 18:03:00;;;;;;;42.37;27.27;;;;;;;;;;6597190;28;20238;-95
2022/11/09 18:06:21;;;;;;;38.40;25.63;;;;;;;;;;6597580;28;20582;-94
2022/11/09 18:09:32;;;;;;;63.27;41.97;;;;;;;;;;6597145;28;20172;-95
2022/11/09 18:12:42;;;;;;;58.97;37.73;;;;;;;;;;6594525;28;20223;-95
2022/11/09 18:15:53;;;;;;;75.03;44.67;;;;;;;;;;6596380;28;20660;-95
2022/11/09 18:19:04;;;;;;;50.43;33.07;;;;;;;;;;6597000;28;20164;-94
2022/11/09 18:22:14;;;;;;;47.23;31.10;;;;;;;;;;6595899;28;20180;-96
2022/11/09 18:25:24;;;;;;;46.40;29.43;;;;;;;;;;6595047;28;20544;-94
2022/11/09 18:28:35;;;;;;;54.03;34.87;;;;;;;;;;6596114;28;20188;-95
2022/11/09 18:31:46;;;;;;;45.00;30.80;;;;;;;;;;6596324;28;20176;-94
2022/11/09 18:34:57;;;;;;;49.40;32.37;;;;;;;;;;6596167;28;20207;-94
2022/11/09 18:38:07;;;;;;;48.13;32.97;;;;;;;;;;6595094;28;20176;-94
2022/11/09 18:41:21;;;;;;;54.73;34.60;;;;;;;;;;6596901;28;20628;-95
2022/11/09 18:44:31;;;;;;;71.60;45.17;;;;;;;;;;6596281;28;20314;-94
2022/11/09 18:47:43;;;;;;;82.03;48.67;;;;;;;;;;6594701;28;20168;-94